Time;durP1;ratioP1;P1;durP2;ratioP2;P2;SDS_P1;SDS_P2;PMS_P1;PMS_P2;Temp;Humidity;BMP_temperature;BMP_pressure;BME280_temperature;BME280_humidity;BME280_pressure;Samples;Min_cycle;Max_cycle;Signal;HPM_P1;HPM_P2
2022/03/21 00:00:57;;;;;;;14.32;7.57;;;5.60;43.70;;;4.08;43.99;97310.13;4967890;28;20031;-62
2022/03/21 00:03:24;;;;;;;13.20;8.18;;;5.50;44.10;;;4.05;42.28;97312.94;4980327;28;20643;-62
2022/03/21 00:05:50;;;;;;;15.93;8.05;;;5.50;44.40;;;4.01;42.05;97316.75;4985785;28;20034;-62
2022/03/21 00:08:17;;;;;;;13.50;8.02;;;5.50;44.20;;;3.99;42.14;97316.03;4986419;28;20093;-62
2022/03/21 00:10:44;;;;;;;12.57;8.15;;;5.40;44.70;;;3.95;42.21;97323.25;4993643;28;20036;-62
2022/03/21 00:13:10;;;;;;;12.52;7.57;;;5.40;44.80;;;3.91;42.38;97313.22;5003888;28;20043;-62
2022/03/21 00:15:35;;;;;;;11.23;7.47;;;5.30;44.40;;;3.88;42.45;97316.88;4989923;28;20057;-64
2022/03/21 00:18:04;;;;;;;12.07;7.70;;;5.40;44.60;;;3.87;43.09;97314.38;4996207;28;20026;-61
2022/03/21 00:20:31;;;;;;;11.50;8.13;;;5.30;44.70;;;3.83;42.49;97320.75;4995428;28;20026;-62
2022/03/21 00:22:56;;;;;;;11.93;7.47;;;5.30;44.20;;;3.84;42.29;97323.25;4957211;28;20083;-61
2022/03/21 00:25:22;;;;;;;13.43;8.00;;;5.30;44.20;;;3.83;42.46;97320.75;4995298;28;20034;-61
2022/03/21 00:27:48;;;;;;;11.35;7.00;;;5.40;43.60;;;3.82;42.35;97321.69;4955532;28;20031;-61
2022/03/21 00:30:14;;;;;;;13.73;8.15;;;5.20;43.80;;;3.83;42.53;97315.53;4986352;28;20046;-61
2022/03/21 00:32:40;;;;;;;14.65;8.55;;;5.30;43.30;;;3.82;42.15;97319.09;4991284;28;20030;-62
2022/03/21 00:35:09;;;;;;;13.32;7.80;;;5.20;43.50;;;3.82;42.49;97313.88;4994878;28;20038;-61
2022/03/21 00:37:37;;;;;;;14.07;8.82;;;5.30;43.90;;;3.79;42.40;97308.94;4963214;28;20400;-61
2022/03/21 00:40:05;;;;;;;13.30;8.27;;;5.20;44.70;;;3.76;43.10;97319.56;4984880;28;20113;-61
2022/03/21 00:42:34;;;;;;;12.88;8.55;;;5.20;45.40;;;3.73;43.32;97314.59;4975762;28;20032;-61
2022/03/21 00:45:06;;;;;;;12.07;8.07;;;5.20;45.50;;;3.66;43.58;97317.69;4987158;28;20361;-61
2022/03/21 00:47:32;;;;;;;13.35;7.97;;;5.10;45.10;;;3.63;43.01;97317.09;4976018;28;20099;-61
2022/03/21 00:49:59;;;;;;;11.88;7.95;;;5.10;45.30;;;3.58;43.53;97317.41;4983271;28;20035;-61
2022/03/21 00:52:24;;;;;;;12.48;8.02;;;5.10;45.60;;;3.55;43.18;97322.84;4980336;28;20476;-61
2022/03/21 00:54:50;;;;;;;13.93;8.75;;;5.10;45.50;;;3.49;43.35;97318.13;4973125;28;20026;-61
2022/03/21 00:57:16;;;;;;;12.52;8.00;;;5.00;45.20;;;3.47;43.02;97330.41;4985251;28;20046;-61
2022/03/21 00:59:41;;;;;;;12.07;7.68;;;4.90;44.60;;;3.44;43.10;97328.03;4985144;28;20089;-61
2022/03/21 01:02:08;;;;;;;12.60;7.93;;;4.90;44.40;;;3.44;43.45;97327.22;4999424;28;20882;-62
2022/03/21 01:04:36;;;;;;;11.32;7.70;;;4.80;44.70;;;3.42;43.28;97326.50;4955392;28;20031;-62
2022/03/21 01:07:03;;;;;;;14.30;8.00;;;4.80;44.10;;;3.41;42.86;97324.84;4988565;28;20491;-62
2022/03/21 01:09:28;;;;;;;14.75;8.20;;;4.90;44.30;;;3.40;43.00;97329.22;4975015;28;20039;-61
2022/03/21 01:11:54;;;;;;;13.60;7.85;;;4.80;44.70;;;3.38;43.24;97328.47;4959914;28;20473;-61
2022/03/21 01:14:20;;;;;;;13.00;8.15;;;4.90;44.60;;;3.36;43.00;97322.56;4991488;28;20033;-62
2022/03/21 01:16:46;;;;;;;10.98;7.53;;;4.90;44.50;;;3.37;43.25;97324.22;4992367;28;20538;-62
2022/03/21 01:19:12;;;;;;;12.30;7.90;;;4.90;44.90;;;3.36;43.62;97327.75;4996195;28;20042;-62
2022/03/21 01:21:37;;;;;;;11.60;7.93;;;4.90;44.90;;;3.34;43.97;97329.66;4985292;28;20106;-62
2022/03/21 01:24:03;;;;;;;13.73;8.75;;;4.90;45.50;;;3.32;43.71;97326.34;4993042;28;20049;-61
2022/03/21 01:26:29;;;;;;;19.63;8.52;;;4.80;45.70;;;3.28;44.07;97325.75;4993041;28;20070;-62
2022/03/21 01:28:56;;;;;;;13.68;8.52;;;4.80;45.80;;;3.23;43.62;97327.03;4993654;28;20057;-61
2022/03/21 01:31:22;;;;;;;13.80;7.90;;;4.70;45.60;;;3.21;44.03;97323.72;4991319;28;20462;-62
2022/03/21 01:33:48;;;;;;;12.18;7.88;;;4.70;45.60;;;3.16;43.71;97318.84;4986780;28;20039;-61
2022/03/21 01:36:14;;;;;;;11.60;7.72;;;4.60;45.70;;;3.12;43.96;97324.38;4979459;28;20045;-62
2022/03/21 01:38:39;;;;;;;16.30;9.20;;;4.60;46.20;;;3.05;43.77;97324.84;4973806;28;20034;-62
2022/03/21 01:41:05;;;;;;;12.02;8.07;;;4.60;46.60;;;3.00;43.98;97331.31;4986325;28;20034;-61
2022/03/21 01:43:31;;;;;;;12.50;7.82;;;4.50;46.80;;;2.93;44.46;97330.91;4994349;28;20058;-61
2022/03/21 01:45:57;;;;;;;14.18;8.43;;;4.50;46.70;;;2.89;44.79;97331.25;4988927;28;20072;-61
2022/03/21 01:48:22;;;;;;;13.65;8.05;;;4.40;47.10;;;2.87;44.91;97333.97;4955586;28;20042;-62
2022/03/21 01:50:48;;;;;;;13.82;8.85;;;4.40;47.00;;;2.81;44.93;97331.81;4974032;28;20434;-61
2022/03/21 01:55:58;;;;;;;12.85;7.75;;;4.30;47.20;;;2.70;45.26;97332.56;4957100;28;20065;-61
2022/03/21 01:58:25;;;;;;;12.38;8.10;;;4.20;47.60;;;2.65;44.98;97326.06;4987125;28;20038;-62
2022/03/21 02:00:51;;;;;;;13.98;8.32;;;4.20;47.50;;;2.60;44.96;97330.75;4987847;28;20613;-62
2022/03/21 02:03:19;;;;;;;13.27;8.20;;;4.10;47.40;;;2.56;45.33;97332.75;4986007;28;20035;-62
2022/03/21 02:05:47;;;;;;;12.00;8.18;;;4.10;47.70;;;2.51;44.94;97328.81;4988823;28;20089;-62
2022/03/21 02:08:13;;;;;;;13.80;8.55;;;4.10;48.00;;;2.45;45.62;97336.09;4969274;28;20233;-62
2022/03/21 02:10:41;;;;;;;13.30;7.97;;;4.00;47.90;;;2.43;45.88;97337.97;4974026;28;20034;-62
2022/03/21 02:13:07;;;;;;;16.65;8.30;;;4.00;47.90;;;2.38;45.50;97334.88;4954908;28;20038;-60
2022/03/21 02:15:34;;;;;;;12.82;8.45;;;3.90;47.50;;;2.35;45.38;97342.88;4956778;28;20043;-60
2022/03/21 02:18:01;;;;;;;12.52;8.35;;;3.80;47.70;;;2.30;45.67;97337.19;4969894;28;20522;-61
2022/03/21 02:20:29;;;;;;;13.63;7.90;;;3.80;47.90;;;2.29;46.22;97338.13;4984758;28;20043;-60
2022/03/21 02:23:15;;;;;;;12.88;8.48;;;3.80;47.80;;;2.26;46.58;97330.53;4983340;28;20173;-60
2022/03/21 02:25:41;;;;;;;14.07;8.07;;;3.80;47.70;;;2.22;46.18;97334.28;4995544;28;20041;-60
2022/03/21 02:28:12;;;;;;;14.10;7.90;;;3.70;47.90;;;2.18;46.72;97332.84;4994960;28;20506;-61
2022/03/21 02:30:41;;;;;;;12.95;8.70;;;3.70;48.40;;;2.17;46.50;97336.38;4960287;28;20524;-61
2022/03/21 02:33:06;;;;;;;13.00;8.75;;;3.70;48.20;;;2.14;45.88;97337.41;4976077;28;20058;-60
2022/03/21 02:35:33;;;;;;;15.02;8.55;;;3.70;48.40;;;2.12;46.23;97333.28;4974407;28;20558;-61
2022/03/21 02:37:59;;;;;;;13.13;7.90;;;3.70;48.30;;;2.07;46.36;97337.97;4969074;28;20569;-60
2022/03/21 02:40:25;;;;;;;14.45;8.35;;;3.60;48.30;;;2.05;46.04;97337.22;4956081;28;20043;-60
2022/03/21 02:42:51;;;;;;;12.10;8.05;;;3.60;48.90;;;2.01;46.37;97348.75;4986440;28;20522;-61
2022/03/21 02:45:17;;;;;;;12.43;8.18;;;3.50;48.80;;;1.99;46.78;97341.06;4938453;28;20049;-61
2022/03/21 02:47:42;;;;;;;16.85;8.45;;;3.60;48.70;;;2.00;46.00;97349.66;4976269;28;20034;-61
2022/03/21 02:50:12;;;;;;;12.98;8.27;;;3.50;48.90;;;1.96;47.75;97349.06;4990594;28;20041;-60
2022/03/21 02:52:37;;;;;;;12.77;8.48;;;3.50;49.10;;;1.92;46.71;97351.97;4976631;28;20029;-63
2022/03/21 02:55:04;;;;;;;12.27;7.90;;;3.40;49.00;;;1.89;47.00;97345.22;4990733;28;20480;-62
2022/03/21 02:57:31;;;;;;;12.82;7.95;;;3.40;48.90;;;1.84;47.30;97340.38;4977667;28;20031;-62
2022/03/21 02:59:57;;;;;;;13.00;7.90;;;3.40;48.70;;;1.83;46.41;97343.06;4981628;28;20035;-62
2022/03/21 03:02:23;;;;;;;12.50;7.68;;;3.30;48.90;;;1.79;46.97;97339.81;4984799;28;20525;-63
2022/03/21 03:04:48;;;;;;;12.10;7.78;;;3.30;49.00;;;1.76;47.05;97342.63;4979192;28;20068;-63
2022/03/21 03:07:14;;;;;;;13.52;7.90;;;3.20;49.00;;;1.73;46.30;97342.84;4985667;28;20054;-63
2022/03/21 03:09:40;;;;;;;13.90;9.07;;;3.20;49.30;;;1.74;47.72;97335.88;4983656;28;20034;-60
2022/03/21 03:12:06;;;;;;;67.13;39.63;;;3.20;49.60;;;1.74;46.86;97339.31;4973256;28;20123;-60
2022/03/21 03:14:32;;;;;;;65.18;38.88;;;3.20;50.10;;;1.73;47.28;97336.81;4964620;28;20114;-61
2022/03/21 03:16:58;;;;;;;16.20;10.77;;;3.30;50.50;;;1.71;47.18;97333.50;4992074;28;20104;-60
2022/03/21 03:19:23;;;;;;;11.48;7.55;;;3.20;49.60;;;1.67;47.62;97334.66;4979025;28;20043;-63
2022/03/21 03:21:49;;;;;;;41.10;25.80;;;3.20;49.10;;;1.70;47.38;97339.63;4986574;28;20081;-61
2022/03/21 03:24:15;;;;;;;69.40;43.80;;;3.30;49.70;;;1.67;47.81;97345.84;4951817;28;20043;-61
2022/03/21 03:26:41;;;;;;;48.25;27.92;;;3.30;49.20;;;1.64;47.76;97338.28;4982235;28;20037;-61
2022/03/21 03:29:06;;;;;;;20.05;11.80;;;3.20;49.10;;;1.64;46.88;97346.06;4990330;28;20061;-61
2022/03/21 03:31:33;;;;;;;13.65;8.05;;;3.20;49.50;;;1.62;47.21;97341.91;4982628;28;20109;-60
2022/03/21 03:33:59;;;;;;;13.32;8.80;;;3.10;49.40;;;1.57;47.15;97351.75;4980387;28;20038;-60
2022/03/21 03:36:25;;;;;;;12.43;7.72;;;3.00;49.70;;;1.56;47.58;97345.72;4984331;28;20050;-60
2022/03/21 03:38:53;;;;;;;17.75;11.88;;;3.10;49.70;;;1.55;47.96;97351.84;4959706;28;20053;-60
2022/03/21 03:41:19;;;;;;;25.92;15.65;;;3.10;49.80;;;1.51;48.44;97353.81;4998683;28;20048;-60
2022/03/21 03:43:47;;;;;;;25.85;17.25;;;3.00;49.90;;;1.44;47.92;97372.50;4952503;28;20034;-62
2022/03/21 03:46:16;;;;;;;16.95;11.07;;;2.90;50.50;;;1.40;47.63;97358.06;4960684;28;20068;-64
2022/03/21 03:48:41;;;;;;;17.13;8.57;;;2.80;50.90;;;1.38;47.83;97373.72;4985122;28;20050;-64
2022/03/21 03:51:07;;;;;;;31.40;18.15;;;2.80;50.70;;;1.37;47.96;97369.47;4983902;28;20048;-61
2022/03/21 03:53:33;;;;;;;25.60;16.73;;;2.90;50.60;;;1.33;48.32;97361.97;4971670;28;20083;-60
2022/03/21 03:55:59;;;;;;;16.38;10.13;;;2.80;50.90;;;1.29;49.03;97361.34;4970018;28;20038;-62
2022/03/21 03:58:25;;;;;;;15.68;8.35;;;2.80;50.80;;;1.26;48.69;97358.16;4988954;28;20034;-62
2022/03/21 04:00:51;;;;;;;12.75;8.57;;;2.80;51.00;;;1.24;48.70;97358.25;4970624;28;20049;-62
2022/03/21 04:06:02;;;;;;;12.40;8.23;;;2.80;51.30;;;1.17;49.13;97364.75;4978794;28;20189;-62
2022/03/21 04:08:28;;;;;;;13.43;8.80;;;2.80;51.20;;;1.10;49.15;97364.31;4980005;28;20114;-63
2022/03/21 04:10:54;;;;;;;13.45;7.97;;;2.70;51.70;;;1.05;49.41;97371.56;4986584;28;20046;-63
2022/03/21 04:13:20;;;;;;;14.05;8.88;;;2.60;51.70;;;1.02;49.38;97369.16;4981949;28;20038;-63
2022/03/21 04:15:45;;;;;;;13.40;8.80;;;2.70;51.60;;;1.00;49.53;97360.66;4978249;28;20070;-62
2022/03/21 04:18:11;;;;;;;14.20;9.50;;;2.70;51.50;;;0.98;48.91;97370.31;4978471;28;20035;-62
2022/03/21 04:20:39;;;;;;;41.80;27.00;;;2.70;51.80;;;0.99;49.43;97373.72;4980508;28;20042;-62
2022/03/21 04:23:04;;;;;;;51.97;34.47;;;2.70;52.10;;;0.94;49.54;97374.03;4983682;28;20035;-63
2022/03/21 04:25:30;;;;;;;23.63;15.02;;;2.60;51.90;;;0.94;49.97;97368.84;4963381;28;20418;-60
2022/03/21 04:27:56;;;;;;;14.60;9.73;;;2.60;51.90;;;0.92;50.43;97375.88;4952545;28;20086;-60
2022/03/21 04:30:22;;;;;;;14.32;8.88;;;2.60;52.10;;;0.90;49.79;97373.38;4977414;28;20128;-60
2022/03/21 04:32:48;;;;;;;13.55;8.93;;;2.60;52.00;;;0.87;50.10;97378.75;4969812;28;20093;-60
2022/03/21 04:35:14;;;;;;;16.88;9.00;;;2.50;51.70;;;0.83;49.98;97382.47;4977712;28;20046;-60
2022/03/21 04:37:40;;;;;;;14.20;8.48;;;2.50;52.10;;;0.83;49.96;97379.03;4962294;28;20458;-61
2022/03/21 04:40:07;;;;;;;14.38;8.65;;;2.50;52.30;;;0.81;50.47;97386.09;4971184;28;20136;-60
2022/03/21 04:42:36;;;;;;;15.63;8.82;;;2.40;52.30;;;0.80;51.57;97393.03;4984365;28;20037;-60
2022/03/21 04:45:03;;;;;;;12.80;8.45;;;2.40;52.40;;;0.78;50.29;97388.88;4962569;28;20050;-61
2022/03/21 04:47:30;;;;;;;12.38;8.20;;;2.40;52.90;;;0.76;50.77;97390.72;4968837;28;20034;-61
2022/03/21 04:49:55;;;;;;;14.75;8.38;;;2.40;52.80;;;0.75;50.95;97395.06;4969341;28;20093;-64
2022/03/21 04:52:21;;;;;;;13.27;8.35;;;2.50;52.70;;;0.75;50.33;97394.25;4992830;28;20043;-59
2022/03/21 04:54:48;;;;;;;15.05;8.43;;;2.50;52.50;;;0.75;51.09;97391.66;4968890;28;20502;-59
2022/03/21 04:57:13;;;;;;;13.15;8.48;;;2.40;52.40;;;0.72;50.43;97397.03;4970524;28;20034;-59
2022/03/21 04:59:39;;;;;;;14.65;8.82;;;2.30;52.40;;;0.68;50.48;97403.31;4981661;28;20455;-60
2022/03/21 05:02:06;;;;;;;13.05;9.23;;;2.30;52.80;;;0.67;50.64;97401.66;4986230;28;20533;-59
2022/03/21 05:04:34;;;;;;;13.50;8.38;;;2.30;52.80;;;0.65;50.67;97398.31;4975953;28;20530;-60
2022/03/21 05:07:00;;;;;;;14.15;8.35;;;2.30;52.70;;;0.63;51.12;97407.94;4982726;28;20039;-60
2022/03/21 05:09:26;;;;;;;17.23;8.77;;;2.20;53.30;;;0.61;51.31;97403.69;4956401;28;20062;-60
2022/03/21 05:11:52;;;;;;;17.33;9.15;;;2.20;53.50;;;0.58;50.92;97403.91;4983057;28;20054;-60
2022/03/21 05:14:18;;;;;;;16.55;9.07;;;2.30;52.90;;;0.58;50.90;97409.06;4959587;28;20081;-60
2022/03/21 05:16:48;;;;;;;17.48;9.15;;;2.30;53.20;;;0.58;51.88;97408.25;4958238;28;20022;-61
2022/03/21 05:19:14;;;;;;;15.75;9.02;;;2.30;53.30;;;0.55;51.31;97417.03;4972312;28;20047;-60
2022/03/21 05:21:40;;;;;;;14.27;9.18;;;2.20;53.70;;;0.54;51.23;97405.00;4956394;28;20490;-60
2022/03/21 05:32:21;;;;;;;17.35;11.23;;;2.20;54.30;;;0.47;51.66;97408.91;4978309;28;20073;-60
2022/03/21 05:37:31;;;;;;;15.55;9.32;;;2.20;54.50;;;0.39;52.50;97412.88;4993013;28;20391;-60
2022/03/21 05:42:41;;;;;;;14.65;9.30;;;2.10;55.30;;;0.38;52.41;97424.16;4958304;28;20135;-60
2022/03/21 05:45:09;;;;;;;16.85;9.73;;;2.20;55.80;;;0.37;53.50;97425.91;4980261;28;20619;-59
2022/03/21 05:48:50;;;;;;;17.88;9.65;;;2.20;56.30;;;0.35;53.42;97417.41;4987320;28;20364;-59
2022/03/21 05:50:20;;;;;;;19.77;10.15;;;2.10;56.80;;;0.36;53.96;97426.00;4978136;28;20034;-60
2022/03/21 05:52:46;;;;;;;17.05;9.77;;;2.20;57.30;;;0.38;54.39;97427.59;4992086;28;20458;-60
2022/03/21 05:55:12;;;;;;;17.02;10.90;;;2.30;57.20;;;0.43;54.10;97430.72;4989961;28;20069;-59
2022/03/21 05:57:38;;;;;;;18.15;11.15;;;2.40;57.00;;;0.47;54.57;97436.56;4985812;28;20038;-60
2022/03/21 06:00:23;;;;;;;20.63;10.85;;;2.50;56.90;;;0.53;54.95;97436.19;4990194;28;20386;-60
2022/03/21 06:02:50;;;;;;;17.17;10.40;;;2.60;56.70;;;0.58;54.42;97434.13;4984220;28;20031;-60
2022/03/21 06:05:15;;;;;;;16.08;9.93;;;2.60;56.30;;;0.68;54.71;97440.41;4970699;28;20433;-60
2022/03/21 06:07:41;;;;;;;16.55;9.30;;;2.80;54.90;;;0.74;54.15;97436.63;4974597;28;20042;-60
2022/03/21 06:10:07;;;;;;;17.05;10.07;;;2.80;53.90;;;0.82;54.34;97439.53;4974750;28;20039;-60
2022/03/21 06:12:33;;;;;;;13.30;9.30;;;3.00;53.70;;;0.93;54.13;97438.88;4985978;28;20114;-60
2022/03/21 06:14:59;;;;;;;13.63;8.98;;;3.10;52.80;;;1.02;53.50;97443.47;4966272;28;20041;-60
2022/03/21 06:17:25;;;;;;;16.40;9.30;;;3.30;52.00;;;1.13;53.72;97443.63;4955444;28;20035;-60
2022/03/21 06:19:51;;;;;;;14.50;9.30;;;3.40;52.20;;;1.21;53.47;97438.78;4955371;28;20049;-60
2022/03/21 06:22:17;;;;;;;14.35;8.93;;;3.60;51.70;;;1.32;53.14;97445.88;4972734;28;20023;-60
2022/03/21 06:24:43;;;;;;;12.95;9.15;;;3.70;51.20;;;1.42;53.70;97454.72;4987011;28;20034;-60
2022/03/21 06:27:08;;;;;;;15.48;9.52;;;3.80;51.70;;;1.52;53.82;97455.78;4989483;28;20416;-62
2022/03/21 06:29:34;;;;;;;15.35;9.95;;;3.90;51.40;;;1.62;53.41;97450.84;4951380;28;20640;-59
2022/03/21 06:32:00;;;;;;;14.85;8.80;;;4.00;51.40;;;1.72;53.98;97455.31;4986246;28;20495;-62
2022/03/21 06:34:26;;;;;;;17.48;9.70;;;4.10;51.20;;;1.84;53.65;97451.09;4970712;28;20042;-60
2022/03/21 06:36:52;;;;;;;13.93;9.40;;;4.30;50.70;;;1.95;53.33;97458.16;4970390;28;20410;-60
2022/03/21 06:39:18;;;;;;;16.48;8.88;;;4.50;50.40;;;2.08;53.18;97471.97;4955159;28;20031;-60
2022/03/21 06:41:44;;;;;;;15.75;9.50;;;4.70;49.60;;;2.18;53.50;97457.44;4980741;28;20035;-60
2022/03/21 06:44:10;;;;;;;16.15;9.50;;;5.00;49.30;;;2.38;53.33;97454.31;4998245;28;20395;-61
2022/03/21 06:46:37;;;;;;;16.05;9.23;;;5.10;49.60;;;2.54;52.91;97461.06;4990302;28;20042;-60
2022/03/21 06:49:03;;;;;;;15.75;9.52;;;5.40;49.40;;;2.71;53.39;97458.94;4973792;28;20034;-62
2022/03/21 06:51:29;;;;;;;16.23;9.93;;;5.60;49.00;;;2.85;53.22;97463.19;4953946;28;20035;-60
2022/03/21 06:53:55;;;;;;;14.82;9.25;;;5.70;47.80;;;3.01;52.37;97455.16;4964917;28;20038;-60
2022/03/21 06:56:21;;;;;;;16.25;8.20;;;5.90;46.90;;;3.17;52.04;97460.06;4978344;28;20066;-61
2022/03/21 06:58:47;;;;;;;19.42;8.60;;;6.10;45.00;;;3.33;51.40;97460.63;4971538;28;20035;-60
2022/03/21 07:01:12;;;;;;;16.27;8.45;;;6.40;43.80;;;3.53;50.78;97460.00;4970640;28;20034;-60
2022/03/21 07:03:38;;;;;;;15.40;8.57;;;6.70;43.30;;;3.74;50.84;97462.00;4959196;28;20912;-60
2022/03/21 07:06:04;;;;;;;13.77;8.45;;;6.90;42.80;;;3.95;50.11;97466.44;4982380;28;20490;-60
2022/03/21 07:08:30;;;;;;;11.85;8.05;;;7.30;41.80;;;4.12;49.76;97461.75;4989897;28;20060;-60
2022/03/21 07:10:56;;;;;;;13.70;8.38;;;7.30;40.70;;;4.30;49.55;97460.38;4957216;28;20034;-60
2022/03/21 07:13:22;;;;;;;15.10;8.80;;;7.60;40.80;;;4.49;49.09;97462.38;4988289;28;20125;-61
2022/03/21 07:15:48;;;;;;;14.60;8.32;;;7.80;40.90;;;4.66;48.37;97464.50;4982466;28;20035;-60
2022/03/21 07:18:13;;;;;;;12.00;7.75;;;8.00;39.30;;;4.82;47.19;97467.59;4957666;28;20034;-60
2022/03/21 07:20:43;;;;;;;10.30;7.45;;;8.10;38.10;;;4.96;46.66;97463.06;4973633;28;20034;-61
2022/03/21 07:23:08;;;;;;;11.07;8.25;;;8.20;37.30;;;5.11;46.27;97467.91;4972593;28;20122;-60
2022/03/21 07:25:34;;;;;;;10.55;7.80;;;8.50;36.60;;;5.27;45.64;97471.91;4969762;28;20037;-60
2022/03/21 07:28:00;;;;;;;12.07;7.35;;;8.60;36.40;;;5.44;44.98;97474.00;4997916;28;20035;-60
2022/03/21 07:30:26;;;;;;;11.57;8.30;;;8.90;35.60;;;5.63;44.35;97482.00;4989232;28;20042;-60
2022/03/21 07:32:52;;;;;;;10.23;7.95;;;9.30;35.50;;;5.80;44.13;97470.19;4972027;28;20034;-62
2022/03/21 07:35:17;;;;;;;12.65;7.63;;;9.50;34.70;;;5.96;44.15;97475.03;5003862;28;20046;-62
2022/03/21 07:37:49;;;;;;;11.75;8.48;;;9.70;34.20;;;6.17;43.27;97477.66;4943341;28;20042;-62
2022/03/21 07:40:16;;;;;;;13.18;8.65;;;10.20;34.10;;;6.40;42.82;97489.63;4989620;28;20034;-63
2022/03/21 07:42:44;;;;;;;11.57;8.32;;;10.60;33.80;;;6.62;42.99;97491.25;4988997;28;20049;-62
2022/03/21 07:47:55;;;;;;;11.32;8.20;;;11.40;32.90;;;7.16;42.84;97493.53;4975735;28;20160;-62
2022/03/21 07:50:23;;;;;;;13.25;8.00;;;12.00;32.00;;;7.45;41.82;97493.56;4957372;28;20030;-62
2022/03/21 07:52:50;;;;;;;12.73;8.45;;;12.40;31.10;;;7.71;41.89;97496.53;4972899;28;20042;-61
2022/03/21 07:55:16;;;;;;;10.93;8.30;;;12.80;30.50;;;8.02;41.40;97493.78;4970144;28;20070;-61
2022/03/21 07:57:42;;;;;;;12.35;8.32;;;13.10;30.40;;;8.24;41.24;97496.94;4989311;28;20121;-61
2022/03/21 08:00:11;;;;;;;12.43;8.75;;;13.20;30.50;;;8.49;41.10;97500.78;4989060;28;20050;-61
2022/03/21 08:02:37;;;;;;;12.07;8.50;;;13.60;30.00;;;8.75;40.10;97481.78;4989274;28;20506;-61
2022/03/21 08:05:04;;;;;;;12.40;8.93;;;13.90;29.20;;;9.00;39.15;97494.25;4947276;28;20042;-62
2022/03/21 08:07:29;;;;;;;12.73;8.60;;;14.20;27.90;;;9.14;39.17;97493.78;4953730;28;20515;-61
2022/03/21 08:09:55;;;;;;;12.45;8.60;;;14.20;28.00;;;9.31;39.09;97494.81;4937649;28;20126;-62
2022/03/21 08:12:21;;;;;;;11.00;8.40;;;14.50;28.10;;;9.57;38.65;97497.56;4985868;28;20035;-61
2022/03/21 08:14:47;;;;;;;10.40;7.88;;;14.90;27.40;;;9.87;37.52;97504.25;4966623;28;20066;-61
2022/03/21 08:17:13;;;;;;;11.88;8.32;;;15.40;27.20;;;10.14;38.72;97503.34;4988020;28;20057;-61
2022/03/21 08:19:39;;;;;;;12.32;8.63;;;15.60;26.80;;;10.42;37.42;97504.94;4993506;28;20030;-62
2022/03/21 08:22:04;;;;;;;14.30;8.68;;;16.10;26.70;;;10.69;37.46;97497.88;4953348;28;20466;-61
2022/03/21 08:24:39;;;;;;;11.18;8.48;;;16.10;26.20;;;10.92;37.28;97501.63;4977220;28;20541;-62
2022/03/21 08:27:05;;;;;;;12.77;8.90;;;16.40;25.60;;;11.17;36.11;97499.09;4951106;28;20038;-62
2022/03/21 08:29:31;;;;;;;11.98;8.55;;;16.60;25.40;;;11.43;35.46;97497.22;4953548;28;20143;-62
2022/03/21 08:31:57;;;;;;;13.98;7.85;;;16.90;25.20;;;11.72;35.71;97509.16;4953351;28;20422;-62
2022/03/21 08:34:23;;;;;;;12.77;7.82;;;17.30;24.90;;;12.00;35.68;97505.28;4962112;28;20092;-62
2022/03/21 08:36:49;;;;;;;11.00;8.00;;;17.70;24.80;;;12.27;34.42;97499.69;4970168;28;20082;-62
2022/03/21 08:39:15;;;;;;;10.07;8.18;;;17.70;23.50;;;12.41;34.12;97503.47;4989334;28;20042;-62
2022/03/21 08:41:41;;;;;;;10.82;8.40;;;17.80;23.90;;;12.58;33.90;97499.81;4973334;28;20047;-63
2022/03/21 08:44:07;;;;;;;11.07;8.40;;;18.00;23.60;;;12.80;33.14;97508.03;4979676;28;20854;-62
2022/03/21 08:46:33;;;;;;;10.48;7.75;;;18.10;23.40;;;13.03;33.40;97501.06;4973996;28;20093;-62
2022/03/21 08:51:43;;;;;;;10.27;8.13;;;18.60;22.80;;;13.51;32.17;97503.69;4959724;28;20170;-61
2022/03/21 08:54:10;;;;;;;12.88;8.70;;;18.90;22.70;;;13.65;32.83;97500.34;4960927;28;20098;-61
2022/03/21 08:56:36;;;;;;;13.50;8.52;;;19.00;22.50;;;13.77;32.38;97504.22;4984194;28;20113;-62
2022/03/21 08:59:01;;;;;;;10.95;8.77;;;18.90;22.20;;;13.90;32.88;97504.47;4975820;28;20038;-62
2022/03/21 09:01:27;;;;;;;11.68;8.05;;;19.10;22.50;;;14.14;31.03;97500.00;4976151;28;20539;-62
2022/03/21 09:03:54;;;;;;;12.32;8.63;;;19.60;22.80;;;14.40;31.25;97496.00;4975239;28;20383;-62
2022/03/21 09:06:20;;;;;;;10.23;8.63;;;19.90;21.90;;;14.67;31.08;97491.97;4965909;28;20503;-62
2022/03/21 09:08:49;;;;;;;10.82;8.75;;;20.20;21.70;;;14.96;29.86;97495.66;4940346;28;20061;-62
2022/03/21 09:11:17;;;;;;;13.07;8.63;;;20.30;21.70;;;15.15;30.92;97495.09;4973014;28;20027;-61
2022/03/21 09:13:44;;;;;;;9.57;7.85;;;20.50;21.40;;;15.40;30.17;97495.66;4941780;28;20097;-62
2022/03/21 09:16:11;;;;;;;9.93;8.35;;;20.80;21.10;;;15.63;30.62;97486.78;4984534;28;20059;-63
2022/03/21 09:18:39;;;;;;;11.70;8.60;;;20.90;21.40;;;15.83;29.84;97496.56;5008495;28;20096;-62
2022/03/21 09:21:05;;;;;;;12.00;8.48;;;21.00;21.10;;;16.04;30.12;97494.94;5007548;28;20038;-62
2022/03/21 09:23:31;;;;;;;11.20;8.43;;;21.20;21.20;;;16.26;29.53;97493.94;4992268;28;20528;-62
2022/03/21 09:25:56;;;;;;;9.93;7.82;;;21.30;20.90;;;16.45;29.14;97487.97;4989729;28;20142;-62
2022/03/21 09:28:22;;;;;;;11.82;8.15;;;21.50;21.00;;;16.68;29.12;97493.09;4959467;28;20557;-62
2022/03/21 09:30:48;;;;;;;12.15;8.40;;;21.70;20.60;;;16.86;28.85;97499.75;4975075;28;20490;-62
2022/03/21 09:33:15;;;;;;;9.32;8.23;;;21.70;21.10;;;17.01;28.39;97493.34;4973781;28;20042;-63
2022/03/21 09:35:43;;;;;;;13.10;8.23;;;21.90;20.70;;;17.18;28.41;97493.00;4994086;28;20129;-62
2022/03/21 09:38:10;;;;;;;12.15;8.35;;;22.10;20.40;;;17.36;28.87;97490.66;4975667;28;20034;-62
2022/03/21 09:40:35;;;;;;;10.00;8.13;;;22.20;20.50;;;17.56;28.56;97496.06;4957930;28;20034;-63
2022/03/21 09:43:01;;;;;;;12.13;8.90;;;22.60;19.90;;;17.67;28.04;97491.03;4974864;28;21062;-61
2022/03/21 09:45:27;;;;;;;10.65;9.23;;;22.70;19.40;;;17.84;26.88;97482.66;4991310;28;20442;-61
2022/03/21 09:48:08;;;;;;;11.43;8.93;;;23.10;19.00;;;17.97;26.54;97488.03;4991095;28;20470;-62
2022/03/21 09:50:36;;;;;;;10.23;8.32;;;23.30;18.60;;;18.05;26.19;97482.50;4983924;28;20220;-61
2022/03/21 09:53:06;;;;;;;10.57;8.07;;;23.60;18.70;;;18.19;26.78;97478.84;4971750;28;20546;-61
2022/03/21 09:55:32;;;;;;;12.07;8.50;;;24.10;18.60;;;18.35;26.25;97480.31;4963996;28;20521;-61
2022/03/21 09:57:57;;;;;;;12.25;8.50;;;24.70;17.80;;;18.49;26.59;97475.78;4971698;28;20039;-61
2022/03/21 10:00:25;;;;;;;9.57;7.90;;;25.20;17.60;;;18.75;26.32;97475.78;4955830;28;20035;-62
2022/03/21 10:02:51;;;;;;;10.77;8.20;;;25.80;16.80;;;19.08;26.85;97477.59;4982106;28;20124;-62
2022/03/21 10:05:37;;;;;;;9.45;8.30;;;26.50;16.50;;;19.57;24.90;97475.22;4999242;28;20045;-62
2022/03/21 10:08:12;;;;;;;11.20;8.20;;;27.20;15.70;;;20.02;25.04;97477.03;4975026;28;20030;-62
2022/03/21 10:10:38;;;;;;;9.63;7.63;;;27.80;15.10;;;20.46;26.21;97478.81;4974729;28;20121;-62
2022/03/21 10:13:09;;;;;;;11.30;8.75;;;28.30;14.50;;;21.07;25.49;97467.34;5005304;28;20101;-62
2022/03/21 10:15:38;;;;;;;;;;;29.10;14.40;;;21.64;23.10;97467.94;4983993;28;20041;-62
2022/03/21 10:18:10;;;;;;;8.93;8.02;;;29.60;14.10;;;22.25;23.65;97472.28;4986497;28;19921;-62
2022/03/21 10:20:37;;;;;;;8.48;7.63;;;30.30;13.70;;;22.92;25.30;97462.13;4966783;28;20038;-62
2022/03/21 10:23:23;;;;;;;9.45;7.65;;;31.10;13.10;;;23.55;21.73;97460.50;4958192;28;20092;-62
2022/03/21 10:25:49;;;;;;;10.00;7.90;;;31.60;13.30;;;24.08;24.28;97452.13;4974376;28;20109;-62
2022/03/21 10:28:35;;;;;;;11.70;8.05;;;32.20;12.50;;;24.62;20.89;97460.59;4989371;28;20039;-63
2022/03/21 10:31:02;;;;;;;9.60;8.15;;;32.70;12.60;;;24.84;23.34;97463.34;4983073;28;20054;-62
2022/03/21 10:33:28;;;;;;;12.38;8.57;;;32.50;12.10;;;25.15;22.64;97454.69;4974653;28;20034;-62
2022/03/21 10:35:54;;;;;;;10.60;8.07;;;33.00;12.60;;;25.64;22.56;97457.47;4973930;28;20141;-62
2022/03/21 10:38:38;;;;;;;9.38;7.32;;;33.40;12.00;;;26.14;20.06;97451.00;4989552;28;20387;-62
2022/03/21 10:41:08;;;;;;;10.25;8.18;;;33.90;12.10;;;26.44;19.71;97447.78;4973878;28;20046;-62
2022/03/21 10:43:34;;;;;;;;;;;33.80;11.40;;;26.71;19.09;97443.16;4990972;28;20037;-62
2022/03/21 10:45:59;;;;;;;12.55;9.43;;;33.80;11.90;;;26.93;21.94;97447.59;4973859;28;19913;-62